Language: 


Des rapports , des résumés tant et plus, au choix de chacun....


Données Historiques de Météogheer
Journalier Rapport pour Février 2, 2018 Unitée:  Les deux    Impériale   Métrique
Suivant Jour »
Journalier Hebdomadaire Mensuel Annuel Sur mesure
  Max: Min: Moyenne:
Température: 44.8 °F /  7.1 °C 35.2 °F /  1.8 °C 39.4 °F /  4.1 °C
Point de rosée: 44.6 °F /  7.0 °C 35.6 °F /  2.0 °C 39.2 °F /  4 °C
Humidité: 98% 87% 97%
Vent: 14.8mph /  23.8km/h - 3.9mph /  6.3km/h
Rafales: 15.7mph /  25.3km/h - -
Vent- - West
Pression: 29.8 in /  1010.0 hPa 29.6 in /  1002.9 hPa -
Pluie: 0.54 in /  13.7 mm    
Historical Graphs
 
 
Données tabulaires pour Février 2, 2018
Heure Température Point de rosée Pression Vent Vent Rafales Humidité Pluie Taux (Horaire) Conditions
00:00 37.9 °F /  3.3 °C 37.4 °F /  3.0 °C 29.6in /  1002.9hPa West 3.8mph /  6.1km/h 8.7mph /  14.0km/h 98% 0.04in /  1.0mm
00:05 37.9 °F /  3.3 °C 37.4 °F /  3.0 °C 29.6in /  1002.9hPa SW 9.6mph /  15.4km/h 9.6mph /  15.4km/h 98% 0.05in /  1.3mm
00:10 37.9 °F /  3.3 °C 37.4 °F /  3.0 °C 29.6in /  1002.9hPa West 4mph /  6.4km/h 9.6mph /  15.4km/h 98% 0.04in /  1.0mm
00:16 37.9 °F /  3.3 °C 37.4 °F /  3.0 °C 29.6in /  1002.9hPa West 6.7mph /  10.8km/h 8.7mph /  14.0km/h 98% 0.05in /  1.3mm
00:21 37.9 °F /  3.3 °C 37.4 °F /  3.0 °C 29.6in /  1002.9hPa West 6.5mph /  10.5km/h 10.1mph /  16.3km/h 98% 0.06in /  1.5mm
00:26 37.9 °F /  3.3 °C 37.4 °F /  3.0 °C 29.6in /  1002.9hPa West 5.6mph /  9.0km/h 10.1mph /  16.3km/h 98% 0.06in /  1.5mm
00:31 38.1 °F /  3.4 °C 37.4 °F /  3.0 °C 29.6in /  1002.9hPa WSW 4.7mph /  7.6km/h 8.5mph /  13.7km/h 98% 0.06in /  1.5mm
00:36 38.1 °F /  3.4 °C 37.4 °F /  3.0 °C 29.6in /  1002.9hPa WSW 8.7mph /  14.0km/h 8.7mph /  14.0km/h 98% 0.07in /  1.8mm
00:41 38.1 °F /  3.4 °C 37.4 °F /  3.0 °C 29.6in /  1002.9hPa West 6.5mph /  10.5km/h 8.7mph /  14.0km/h 98% 0.07in /  1.8mm
00:46 38.1 °F /  3.4 °C 37.4 °F /  3.0 °C 29.6in /  1003.9hPa WSW 6.3mph /  10.1km/h 8.5mph /  13.7km/h 98% 0.06in /  1.5mm
00:51 38.3 °F /  3.5 °C 39.2 °F /  4.0 °C 29.6in /  1003.9hPa West 5.8mph /  9.3km/h 7.8mph /  12.6km/h 98% 0.06in /  1.5mm
00:56 38.3 °F /  3.5 °C 39.2 °F /  4.0 °C 29.6in /  1003.9hPa West 2.5mph /  4.0km/h 8.1mph /  13.0km/h 98% 0.05in /  1.3mm
01:01 38.5 °F /  3.6 °C 39.2 °F /  4.0 °C 29.6in /  1002.9hPa Calm   8.1mph /  13.0km/h 98% 0.05in /  1.3mm
01:06 38.5 °F /  3.6 °C 39.2 °F /  4.0 °C 29.6in /  1002.9hPa Calm   6.5mph /  10.5km/h 98% 0.03in /  0.8mm
01:11 38.7 °F /  3.7 °C 39.2 °F /  4.0 °C 29.6in /  1002.9hPa WSW 5.8mph /  9.3km/h 6.3mph /  10.1km/h 98% 0.02in /  0.5mm
01:16 38.7 °F /  3.7 °C 39.2 °F /  4.0 °C 29.6in /  1002.9hPa West 4.3mph /  6.9km/h 5.8mph /  9.3km/h 98% 0.02in /  0.5mm
01:21 38.8 °F /  3.8 °C 39.2 °F /  4.0 °C 29.6in /  1002.9hPa West 4.9mph /  7.9km/h 6mph /  9.7km/h 98% 0.01in /  0.3mm
01:26 38.8 °F /  3.8 °C 39.2 °F /  4.0 °C 29.6in /  1002.9hPa West 5.8mph /  9.3km/h 6.3mph /  10.1km/h 98% 0.01in /  0.3mm
01:31 39 °F /  3.9 °C 39.2 °F /  4.0 °C 29.6in /  1003.9hPa WNW 3.6mph /  5.8km/h 6.3mph /  10.1km/h 98% 0.01in /  0.3mm
01:36 39 °F /  3.9 °C 39.2 °F /  4.0 °C 29.6in /  1003.9hPa WNW 2.7mph /  4.3km/h 4.7mph /  7.6km/h 98% 0in /  0.0mm
01:41 39.2 °F /  4.0 °C 39.2 °F /  4.0 °C 29.6in /  1003.9hPa NE 3.4mph /  5.5km/h 6.3mph /  10.1km/h 98% 0in /  0.0mm
01:46 39.4 °F /  4.1 °C 39.2 °F /  4.0 °C 29.6in /  1002.9hPa West 2.5mph /  4.0km/h 6.3mph /  10.1km/h 98% 0in /  0.0mm
01:51 39.7 °F /  4.3 °C 39.2 °F /  4.0 °C 29.6in /  1002.9hPa North 3.6mph /  5.8km/h 5.8mph /  9.3km/h 98% 0in /  0.0mm
01:56 39.7 °F /  4.3 °C 39.2 °F /  4.0 °C 29.6in /  1002.9hPa WNW 2.9mph /  4.7km/h 7.6mph /  12.2km/h 98% 0in /  0.0mm
02:01 39.9 °F /  4.4 °C 39.2 °F /  4.0 °C 29.6in /  1002.9hPa West 2mph /  3.2km/h 9.6mph /  15.4km/h 98% 0in /  0.0mm
02:06 39.9 °F /  4.4 °C 39.2 °F /  4.0 °C 29.6in /  1002.9hPa WNW 3.1mph /  5.0km/h 9.6mph /  15.4km/h 98% 0in /  0.0mm
02:12 40.1 °F /  4.5 °C 41 °F /  5.0 °C 29.6in /  1002.9hPa NNE 2.2mph /  3.5km/h 8.1mph /  13.0km/h 98% 0in /  0.0mm
02:17 40.1 °F /  4.5 °C 41 °F /  5.0 °C 29.6in /  1002.9hPa North 5.6mph /  9.0km/h 7.4mph /  11.9km/h 98% 0in /  0.0mm
02:22 40.1 °F /  4.5 °C 41 °F /  5.0 °C 29.6in /  1002.9hPa West 3.4mph /  5.5km/h 8.7mph /  14.0km/h 98% 0in /  0.0mm
02:27 39.9 °F /  4.4 °C 39.2 °F /  4.0 °C 29.6in /  1002.9hPa WSW 1.6mph /  2.6km/h 8.7mph /  14.0km/h 98% 0in /  0.0mm
02:32 39.9 °F /  4.4 °C 39.2 °F /  4.0 °C 29.6in /  1003.9hPa WNW 1.3mph /  2.1km/h 7.6mph /  12.2km/h 98% 0in /  0.0mm
02:37 39.7 °F /  4.3 °C 39.2 °F /  4.0 °C 29.6in /  1003.9hPa West 3.8mph /  6.1km/h 6.3mph /  10.1km/h 98% 0in /  0.0mm
02:42 39.6 °F /  4.2 °C 39.2 °F /  4.0 °C 29.6in /  1003.9hPa West 3.4mph /  5.5km/h 6.5mph /  10.5km/h 98% 0in /  0.0mm
02:47 39.4 °F /  4.1 °C 39.2 °F /  4.0 °C 29.6in /  1003.9hPa Calm   6.5mph /  10.5km/h 98% 0in /  0.0mm
02:52 39.2 °F /  4.0 °C 39.2 °F /  4.0 °C 29.6in /  1003.9hPa Calm   4.3mph /  6.9km/h 98% 0in /  0.0mm
02:57 38.8 °F /  3.8 °C 39.2 °F /  4.0 °C 29.6in /  1003.9hPa West 4.7mph /  7.6km/h 4.7mph /  7.6km/h 98% 0in /  0.0mm
03:02 38.7 °F /  3.7 °C 39.2 °F /  4.0 °C 29.6in /  1003.9hPa WSW 2mph /  3.2km/h 5.4mph /  8.7km/h 98% 0in /  0.0mm
03:07 38.7 °F /  3.7 °C 39.2 °F /  4.0 °C 29.6in /  1003.9hPa NW 3.8mph /  6.1km/h 6.3mph /  10.1km/h 98% 0in /  0.0mm
03:12 38.5 °F /  3.6 °C 39.2 °F /  4.0 °C 29.6in /  1003.9hPa WSW 0.9mph /  1.4km/h 6.3mph /  10.1km/h 98% 0in /  0.0mm
03:17 38.5 °F /  3.6 °C 39.2 °F /  4.0 °C 29.6in /  1003.9hPa WSW 3.4mph /  5.5km/h 5.8mph /  9.3km/h 98% 0in /  0.0mm
03:22 38.1 °F /  3.4 °C 37.4 °F /  3.0 °C 29.6in /  1003.9hPa West 3.8mph /  6.1km/h 5.8mph /  9.3km/h 98% 0in /  0.0mm
03:27 37.9 °F /  3.3 °C 37.4 °F /  3.0 °C 29.6in /  1003.9hPa WSW 3.1mph /  5.0km/h 6mph /  9.7km/h 97% 0in /  0.0mm
03:32 37.8 °F /  3.2 °C 37.4 °F /  3.0 °C 29.6in /  1002.9hPa Calm   6mph /  9.7km/h 97% 0in /  0.0mm
03:37 37.4 °F /  3.0 °C 37.4 °F /  3.0 °C 29.6in /  1002.9hPa West 6.3mph /  10.1km/h 6.3mph /  10.1km/h 97% 0in /  0.0mm
03:42 37.4 °F /  3.0 °C 37.4 °F /  3.0 °C 29.6in /  1002.9hPa WSW 4.9mph /  7.9km/h 7.4mph /  11.9km/h 97% 0in /  0.0mm
03:47 37.4 °F /  3.0 °C 37.4 °F /  3.0 °C 29.6in /  1003.9hPa WNW 3.6mph /  5.8km/h 7.4mph /  11.9km/h 97% 0in /  0.0mm
03:52 37.2 °F /  2.9 °C 37.4 °F /  3.0 °C 29.6in /  1003.9hPa West 6mph /  9.7km/h 6.5mph /  10.5km/h 98% 0in /  0.0mm
03:57 37.4 °F /  3.0 °C 37.4 °F /  3.0 °C 29.6in /  1003.9hPa West 4.3mph /  6.9km/h 7.6mph /  12.2km/h 98% 0in /  0.0mm
04:02 37.6 °F /  3.1 °C 37.4 °F /  3.0 °C 29.6in /  1003.9hPa West 3.1mph /  5.0km/h 7.8mph /  12.6km/h 98% 0in /  0.0mm
04:07 37.9 °F /  3.3 °C 37.4 °F /  3.0 °C 29.6in /  1003.9hPa WSW 3.6mph /  5.8km/h 7.8mph /  12.6km/h 98% 0in /  0.0mm
04:12 38.1 °F /  3.4 °C 37.4 °F /  3.0 °C 29.6in /  1003.9hPa WNW 4.9mph /  7.9km/h 7.8mph /  12.6km/h 98% 0in /  0.0mm
04:17 38.5 °F /  3.6 °C 39.2 °F /  4.0 °C 29.6in /  1003.9hPa West 4.9mph /  7.9km/h 8.7mph /  14.0km/h 98% 0in /  0.0mm
04:22 38.7 °F /  3.7 °C 39.2 °F /  4.0 °C 29.6in /  1003.9hPa WNW 6.3mph /  10.1km/h 9.6mph /  15.4km/h 98% 0in /  0.0mm
04:27 38.8 °F /  3.8 °C 39.2 °F /  4.0 °C 29.6in /  1003.9hPa West 5.4mph /  8.7km/h 9.6mph /  15.4km/h 98% 0in /  0.0mm
04:32 39 °F /  3.9 °C 39.2 °F /  4.0 °C 29.6in /  1003.9hPa WSW 8.7mph /  14.0km/h 8.7mph /  14.0km/h 98% 0in /  0.0mm
04:37 39.2 °F /  4.0 °C 39.2 °F /  4.0 °C 29.6in /  1003.9hPa WNW 5.6mph /  9.0km/h 8.7mph /  14.0km/h 98% 0in /  0.0mm
04:42 39.2 °F /  4.0 °C 39.2 °F /  4.0 °C 29.6in /  1003.9hPa West 7.2mph /  11.6km/h 11mph /  17.7km/h 98% 0in /  0.0mm
04:47 39.2 °F /  4.0 °C 39.2 °F /  4.0 °C 29.6in /  1003.9hPa WSW 8.1mph /  13.0km/h 11mph /  17.7km/h 97% 0in /  0.0mm
04:52 39 °F /  3.9 °C 39.2 °F /  4.0 °C 29.6in /  1003.9hPa WSW 7.8mph /  12.6km/h 11.9mph /  19.1km/h 97% 0in /  0.0mm
04:57 39 °F /  3.9 °C 39.2 °F /  4.0 °C 29.6in /  1003.9hPa West 10.1mph /  16.3km/h 11.9mph /  19.1km/h 96% 0in /  0.0mm
05:02 38.8 °F /  3.8 °C 37.4 °F /  3.0 °C 29.6in /  1003.9hPa West 7.6mph /  12.2km/h 10.5mph /  16.9km/h 95% 0in /  0.0mm
05:07 38.7 °F /  3.7 °C 37.4 °F /  3.0 °C 29.6in /  1003.9hPa WNW 6.3mph /  10.1km/h 10.5mph /  16.9km/h 95% 0in /  0.0mm
05:12 38.7 °F /  3.7 °C 37.4 °F /  3.0 °C 29.6in /  1003.9hPa WNW 6.9mph /  11.1km/h 12.1mph /  19.5km/h 94% 0in /  0.0mm
05:17 38.7 °F /  3.7 °C 37.4 °F /  3.0 °C 29.6in /  1003.9hPa WNW 3.8mph /  6.1km/h 12.1mph /  19.5km/h 94% 0in /  0.0mm
05:22 38.7 °F /  3.7 °C 37.4 °F /  3.0 °C 29.6in /  1003.9hPa WNW 6mph /  9.7km/h 12.1mph /  19.5km/h 94% 0in /  0.0mm
05:27 38.7 °F /  3.7 °C 37.4 °F /  3.0 °C 29.6in /  1003.9hPa West 8.5mph /  13.7km/h 12.8mph /  20.6km/h 94% 0in /  0.0mm
05:32 38.7 °F /  3.7 °C 37.4 °F /  3.0 °C 29.6in /  1003.9hPa West 7.8mph /  12.6km/h 12.8mph /  20.6km/h 94% 0in /  0.0mm
05:37 38.8 °F /  3.8 °C 37.4 °F /  3.0 °C 29.6in /  1003.9hPa West 8.1mph /  13.0km/h 10.5mph /  16.9km/h 93% 0in /  0.0mm
05:42 39 °F /  3.9 °C 37.4 °F /  3.0 °C 29.6in /  1003.9hPa WSW 8.1mph /  13.0km/h 10.5mph /  16.9km/h 93% 0in /  0.0mm
05:48 39.2 °F /  4.0 °C 37.4 °F /  3.0 °C 29.6in /  1003.9hPa WNW 7.8mph /  12.6km/h 10.7mph /  17.2km/h 93% 0in /  0.0mm
05:53 39.4 °F /  4.1 °C 37.4 °F /  3.0 °C 29.6in /  1003.9hPa West 7.8mph /  12.6km/h 11mph /  17.7km/h 92% 0in /  0.0mm
05:58 39.4 °F /  4.1 °C 37.4 °F /  3.0 °C 29.6in /  1003.9hPa WNW 6.3mph /  10.1km/h 11mph /  17.7km/h 92% 0in /  0.0mm
06:03 39.4 °F /  4.1 °C 37.4 °F /  3.0 °C 29.6in /  1003.9hPa WSW 11mph /  17.7km/h 12.8mph /  20.6km/h 91% 0in /  0.0mm
06:08 39.6 °F /  4.2 °C 37.4 °F /  3.0 °C 29.6in /  1003.9hPa South 3.8mph /  6.1km/h 12.8mph /  20.6km/h 91% 0in /  0.0mm
06:13 39.6 °F /  4.2 °C 37.4 °F /  3.0 °C 29.6in /  1003.9hPa West 2.9mph /  4.7km/h 12.5mph /  20.1km/h 91% 0in /  0.0mm
06:18 39.6 °F /  4.2 °C 37.4 °F /  3.0 °C 29.6in /  1003.9hPa West 6.3mph /  10.1km/h 8.7mph /  14.0km/h 91% 0in /  0.0mm
06:23 39.6 °F /  4.2 °C 37.4 °F /  3.0 °C 29.6in /  1003.9hPa West 4mph /  6.4km/h 7.8mph /  12.6km/h 92% 0.01in /  0.3mm
06:28 39.6 °F /  4.2 °C 37.4 °F /  3.0 °C 29.6in /  1003.9hPa WNW 5.6mph /  9.0km/h 10.7mph /  17.2km/h 92% 0.01in /  0.3mm
06:33 39.6 °F /  4.2 °C 37.4 °F /  3.0 °C 29.6in /  1003.9hPa WNW 7.4mph /  11.9km/h 10.7mph /  17.2km/h 93% 0.01in /  0.3mm
06:38 39.6 °F /  4.2 °C 37.4 °F /  3.0 °C 29.6in /  1003.9hPa West 1.1mph /  1.8km/h 10.7mph /  17.2km/h 93% 0.02in /  0.5mm
06:43 39.4 °F /  4.1 °C 37.4 °F /  3.0 °C 29.6in /  1003.9hPa West 5.4mph /  8.7km/h 8.1mph /  13.0km/h 94% 0.02in /  0.5mm
06:48 39.4 °F /  4.1 °C 37.4 °F /  3.0 °C 29.6in /  1003.9hPa NNW 7.4mph /  11.9km/h 7.6mph /  12.2km/h 94% 0.02in /  0.5mm
06:53 39.4 °F /  4.1 °C 37.4 °F /  3.0 °C 29.6in /  1003.9hPa West 3.4mph /  5.5km/h 13.2mph /  21.2km/h 95% 0.02in /  0.5mm
06:58 39.4 °F /  4.1 °C 39.2 °F /  4.0 °C 29.6in /  1003.9hPa WSW 4.3mph /  6.9km/h 13.2mph /  21.2km/h 96% 0.02in /  0.5mm
07:03 39.4 °F /  4.1 °C 39.2 °F /  4.0 °C 29.6in /  1003.9hPa West 3.6mph /  5.8km/h 8.7mph /  14.0km/h 96% 0.02in /  0.5mm
07:08 39.2 °F /  4.0 °C 39.2 °F /  4.0 °C 29.6in /  1003.9hPa ENE 5.8mph /  9.3km/h 6.5mph /  10.5km/h 96% 0.02in /  0.5mm
07:13 39.2 °F /  4.0 °C 39.2 °F /  4.0 °C 29.7in /  1005.0hPa South 3.6mph /  5.8km/h 11mph /  17.7km/h 97% 0.02in /  0.5mm
07:18 39.4 °F /  4.1 °C 39.2 °F /  4.0 °C 29.7in /  1005.0hPa NW 7.4mph /  11.9km/h 11mph /  17.7km/h 97% 0.03in /  0.8mm
07:24 39.4 °F /  4.1 °C 39.2 °F /  4.0 °C 29.7in /  1005.0hPa West 8.1mph /  13.0km/h 9.4mph /  15.1km/h 98% 0.04in /  1.0mm
07:29 39.4 °F /  4.1 °C 39.2 °F /  4.0 °C 29.7in /  1005.0hPa WNW 6.9mph /  11.1km/h 9.4mph /  15.1km/h 98% 0.05in /  1.3mm
07:34 39.2 °F /  4.0 °C 39.2 °F /  4.0 °C 29.7in /  1005.0hPa NW 5.4mph /  8.7km/h 8.1mph /  13.0km/h 98% 0.05in /  1.3mm
07:39 39.2 °F /  4.0 °C 39.2 °F /  4.0 °C 29.7in /  1005.0hPa WSW 3.1mph /  5.0km/h 6.9mph /  11.1km/h 98% 0.04in /  1.0mm
07:44 39.2 °F /  4.0 °C 39.2 °F /  4.0 °C 29.7in /  1005.0hPa West 1.3mph /  2.1km/h 8.7mph /  14.0km/h 98% 0.04in /  1.0mm
07:49 39.2 °F /  4.0 °C 39.2 °F /  4.0 °C 29.7in /  1005.0hPa West 5.6mph /  9.0km/h 8.7mph /  14.0km/h 98% 0.04in /  1.0mm
07:54 39.2 °F /  4.0 °C 39.2 °F /  4.0 °C 29.7in /  1005.0hPa West 5.6mph /  9.0km/h 8.9mph /  14.3km/h 98% 0.04in /  1.0mm
07:59 39.2 °F /  4.0 °C 39.2 °F /  4.0 °C 29.7in /  1005.0hPa WSW 5.4mph /  8.7km/h 10.7mph /  17.2km/h 98% 0.04in /  1.0mm
08:04 39.4 °F /  4.1 °C 39.2 °F /  4.0 °C 29.7in /  1005.0hPa SSW 6.9mph /  11.1km/h 10.7mph /  17.2km/h 98% 0.04in /  1.0mm
08:09 39.4 °F /  4.1 °C 39.2 °F /  4.0 °C 29.7in /  1005.0hPa WNW 7.2mph /  11.6km/h 10.7mph /  17.2km/h 98% 0.04in /  1.0mm
08:14 39.4 °F /  4.1 °C 39.2 °F /  4.0 °C 29.7in /  1005.0hPa SSW 6.3mph /  10.1km/h 10.7mph /  17.2km/h 98% 0.03in /  0.8mm
08:19 39.4 °F /  4.1 °C 39.2 °F /  4.0 °C 29.7in /  1005.0hPa West 3.4mph /  5.5km/h 10.1mph /  16.3km/h 98% 0.03in /  0.8mm
08:24 39.4 °F /  4.1 °C 39.2 °F /  4.0 °C 29.7in /  1005.0hPa WSW 9.6mph /  15.4km/h 10.1mph /  16.3km/h 98% 0.01in /  0.3mm
08:29 39.4 °F /  4.1 °C 39.2 °F /  4.0 °C 29.7in /  1005.0hPa West 2.5mph /  4.0km/h 10.7mph /  17.2km/h 98% 0.01in /  0.3mm
08:34 39.4 °F /  4.1 °C 39.2 °F /  4.0 °C 29.7in /  1005.0hPa WSW 12.1mph /  19.5km/h 12.1mph /  19.5km/h 98% 0.01in /  0.3mm
08:39 39.6 °F /  4.2 °C 39.2 °F /  4.0 °C 29.7in /  1005.0hPa West 5.6mph /  9.0km/h 12.1mph /  19.5km/h 98% 0.01in /  0.3mm
08:44 39.6 °F /  4.2 °C 39.2 °F /  4.0 °C 29.7in /  1005.0hPa WSW 5.8mph /  9.3km/h 12.1mph /  19.5km/h 98% 0.01in /  0.3mm
08:49 39.7 °F /  4.3 °C 39.2 °F /  4.0 °C 29.7in /  1005.0hPa WSW 6.3mph /  10.1km/h 10.5mph /  16.9km/h 98% 0.01in /  0.3mm
08:54 39.7 °F /  4.3 °C 39.2 °F /  4.0 °C 29.7in /  1005.0hPa WSW 6.3mph /  10.1km/h 11mph /  17.7km/h 98% 0.01in /  0.3mm
08:59 39.7 °F /  4.3 °C 39.2 °F /  4.0 °C 29.7in /  1005.0hPa West 7.6mph /  12.2km/h 11.4mph /  18.3km/h 98% 0.01in /  0.3mm
09:04 39.7 °F /  4.3 °C 39.2 °F /  4.0 °C 29.7in /  1005.0hPa WSW 8.1mph /  13.0km/h 11.4mph /  18.3km/h 98% 0.01in /  0.3mm
09:09 39.7 °F /  4.3 °C 39.2 °F /  4.0 °C 29.7in /  1005.0hPa West 7.4mph /  11.9km/h 10.7mph /  17.2km/h 98% 0.01in /  0.3mm
09:14 39.7 °F /  4.3 °C 39.2 °F /  4.0 °C 29.7in /  1005.0hPa West 6mph /  9.7km/h 10.7mph /  17.2km/h 98% 0.01in /  0.3mm
09:19 39.7 °F /  4.3 °C 39.2 °F /  4.0 °C 29.7in /  1005.0hPa WSW 5.6mph /  9.0km/h 9.4mph /  15.1km/h 98% 0.01in /  0.3mm
09:24 39.7 °F /  4.3 °C 39.2 °F /  4.0 °C 29.7in /  1005.0hPa WSW 3.8mph /  6.1km/h 8.1mph /  13.0km/h 98% 0.01in /  0.3mm
09:29 39.9 °F /  4.4 °C 39.2 °F /  4.0 °C 29.7in /  1005.0hPa West 2.5mph /  4.0km/h 8.1mph /  13.0km/h 98% 0in /  0.0mm
09:34 39.9 °F /  4.4 °C 39.2 °F /  4.0 °C 29.7in /  1005.0hPa WSW 4.7mph /  7.6km/h 7.8mph /  12.6km/h 98% 0in /  0.0mm
09:39 40.1 °F /  4.5 °C 41 °F /  5.0 °C 29.7in /  1005.0hPa West 5.4mph /  8.7km/h 7.8mph /  12.6km/h 98% 0in /  0.0mm
09:45 40.3 °F /  4.6 °C 41 °F /  5.0 °C 29.7in /  1005.0hPa WSW 1.1mph /  1.8km/h 8.5mph /  13.7km/h 98% 0in /  0.0mm
09:50 40.5 °F /  4.7 °C 41 °F /  5.0 °C 29.7in /  1005.0hPa West 5.8mph /  9.3km/h 8.5mph /  13.7km/h 98% 0in /  0.0mm
09:55 40.5 °F /  4.7 °C 41 °F /  5.0 °C 29.7in /  1005.0hPa WSW 7.8mph /  12.6km/h 8.5mph /  13.7km/h 98% 0in /  0.0mm
10:00 40.5 °F /  4.7 °C 41 °F /  5.0 °C 29.7in /  1005.0hPa WSW 6.3mph /  10.1km/h 8.5mph /  13.7km/h 98% 0in /  0.0mm
10:05 40.6 °F /  4.8 °C 41 °F /  5.0 °C 29.7in /  1005.0hPa West 14.8mph /  23.8km/h 14.8mph /  23.8km/h 98% 0in /  0.0mm
10:10 41 °F /  5.0 °C 41 °F /  5.0 °C 29.7in /  1005.0hPa WSW 4.3mph /  6.9km/h 14.8mph /  23.8km/h 98% 0in /  0.0mm
10:15 41.4 °F /  5.2 °C 41 °F /  5.0 °C 29.7in /  1005.0hPa West 6.3mph /  10.1km/h 10.1mph /  16.3km/h 98% 0in /  0.0mm
10:20 41.4 °F /  5.2 °C 41 °F /  5.0 °C 29.7in /  1005.0hPa WSW 7.6mph /  12.2km/h 10.5mph /  16.9km/h 98% 0in /  0.0mm
10:25 41.5 °F /  5.3 °C 42.8 °F /  6.0 °C 29.7in /  1005.0hPa NNW 7.6mph /  12.2km/h 10.5mph /  16.9km/h 98% 0in /  0.0mm
10:30 41.7 °F /  5.4 °C 42.8 °F /  6.0 °C 29.7in /  1005.0hPa WNW 5.6mph /  9.0km/h 10.3mph /  16.6km/h 98% 0in /  0.0mm
10:36 41.7 °F /  5.4 °C 42.8 °F /  6.0 °C 29.7in /  1005.0hPa West 6.9mph /  11.1km/h 10.5mph /  16.9km/h 98% 0in /  0.0mm
10:41 41.7 °F /  5.4 °C 42.8 °F /  6.0 °C 29.7in /  1005.0hPa West 6.3mph /  10.1km/h 10.5mph /  16.9km/h 98% 0in /  0.0mm
10:46 41.5 °F /  5.3 °C 42.8 °F /  6.0 °C 29.7in /  1005.0hPa WSW 3.8mph /  6.1km/h 10.5mph /  16.9km/h 98% 0in /  0.0mm
10:51 41.5 °F /  5.3 °C 42.8 °F /  6.0 °C 29.7in /  1005.0hPa WSW 12.1mph /  19.5km/h 12.1mph /  19.5km/h 98% 0in /  0.0mm
10:56 41.4 °F /  5.2 °C 41 °F /  5.0 °C 29.7in /  1005.0hPa West 6mph /  9.7km/h 12.1mph /  19.5km/h 98% 0in /  0.0mm
11:01 41.2 °F /  5.1 °C 41 °F /  5.0 °C 29.7in /  1005.0hPa West 10.7mph /  17.2km/h 11mph /  17.7km/h 98% 0in /  0.0mm
11:06 41 °F /  5.0 °C 41 °F /  5.0 °C 29.7in /  1005.0hPa SW 2.9mph /  4.7km/h 11.4mph /  18.3km/h 98% 0.01in /  0.3mm
11:11 41 °F /  5.0 °C 41 °F /  5.0 °C 29.7in /  1005.0hPa WSW 3.6mph /  5.8km/h 13mph /  20.9km/h 98% 0.02in /  0.5mm
11:16 41 °F /  5.0 °C 41 °F /  5.0 °C 29.7in /  1006.0hPa SSW 5.4mph /  8.7km/h 13mph /  20.9km/h 98% 0.02in /  0.5mm
11:21 41 °F /  5.0 °C 41 °F /  5.0 °C 29.7in /  1006.0hPa West 7.2mph /  11.6km/h 9.6mph /  15.4km/h 98% 0.02in /  0.5mm
11:26 41 °F /  5.0 °C 41 °F /  5.0 °C 29.7in /  1006.0hPa West 9.8mph /  15.8km/h 10.5mph /  16.9km/h 98% 0.02in /  0.5mm
11:31 41 °F /  5.0 °C 41 °F /  5.0 °C 29.7in /  1006.0hPa WSW 9.6mph /  15.4km/h 10.5mph /  16.9km/h 98% 0.02in /  0.5mm
11:36 41 °F /  5.0 °C 41 °F /  5.0 °C 29.7in /  1006.0hPa West 10.3mph /  16.6km/h 11.9mph /  19.1km/h 98% 0.02in /  0.5mm
11:41 40.8 °F /  4.9 °C 41 °F /  5.0 °C 29.7in /  1006.0hPa WSW 10.5mph /  16.9km/h 13.2mph /  21.2km/h 98% 0.03in /  0.8mm
11:46 40.8 °F /  4.9 °C 41 °F /  5.0 °C 29.7in /  1005.0hPa WSW 4.9mph /  7.9km/h 13.2mph /  21.2km/h 98% 0.03in /  0.8mm
11:51 40.8 °F /  4.9 °C 41 °F /  5.0 °C 29.7in /  1005.0hPa Calm   11.2mph /  18.0km/h 98% 0.05in /  1.3mm
11:56 40.8 °F /  4.9 °C 41 °F /  5.0 °C 29.7in /  1005.0hPa NNW 5.4mph /  8.7km/h 10.7mph /  17.2km/h 98% 0.05in /  1.3mm
12:01 41 °F /  5.0 °C 41 °F /  5.0 °C 29.7in /  1006.0hPa NNW 4mph /  6.4km/h 10.7mph /  17.2km/h 98% 0.06in /  1.5mm
12:06 41.2 °F /  5.1 °C 41 °F /  5.0 °C 29.7in /  1006.0hPa NNW 8.5mph /  13.7km/h 10.1mph /  16.3km/h 98% 0.05in /  1.3mm
12:11 41.2 °F /  5.1 °C 41 °F /  5.0 °C 29.7in /  1006.0hPa NW 7.4mph /  11.9km/h 10.3mph /  16.6km/h 98% 0.03in /  0.8mm
12:16 41.2 °F /  5.1 °C 41 °F /  5.0 °C 29.7in /  1006.0hPa WNW 3.6mph /  5.8km/h 10.3mph /  16.6km/h 98% 0.05in /  1.3mm
12:22 41.2 °F /  5.1 °C 41 °F /  5.0 °C 29.7in /  1006.0hPa NNW 6.5mph /  10.5km/h 14.5mph /  23.3km/h 98% 0.05in /  1.3mm
12:27 41.2 °F /  5.1 °C 41 °F /  5.0 °C 29.7in /  1006.0hPa West 8.5mph /  13.7km/h 14.5mph /  23.3km/h 98% 0.06in /  1.5mm
12:32 41 °F /  5.0 °C 41 °F /  5.0 °C 29.7in /  1006.0hPa WNW 6.7mph /  10.8km/h 8.7mph /  14.0km/h 98% 0.07in /  1.8mm
12:37 41 °F /  5.0 °C 41 °F /  5.0 °C 29.7in /  1006.0hPa WSW 4.9mph /  7.9km/h 11.9mph /  19.1km/h 98% 0.07in /  1.8mm
12:42 41 °F /  5.0 °C 41 °F /  5.0 °C 29.7in /  1006.0hPa North 7.8mph /  12.6km/h 11.9mph /  19.1km/h 98% 0.07in /  1.8mm
12:47 41.2 °F /  5.1 °C 41 °F /  5.0 °C 29.7in /  1006.0hPa NNW 2.9mph /  4.7km/h 9.4mph /  15.1km/h 98% 0.07in /  1.8mm
12:52 41.2 °F /  5.1 °C 41 °F /  5.0 °C 29.7in /  1006.0hPa NNE 7.4mph /  11.9km/h 9.6mph /  15.4km/h 98% 0.06in /  1.5mm
12:57 41.5 °F /  5.3 °C 42.8 °F /  6.0 °C 29.7in /  1006.0hPa West 2.7mph /  4.3km/h 9.6mph /  15.4km/h 98% 0.05in /  1.3mm
13:02 42.3 °F /  5.7 °C 42.8 °F /  6.0 °C 29.7in /  1005.0hPa WSW 3.6mph /  5.8km/h 8.5mph /  13.7km/h 98% 0.05in /  1.3mm
13:07 42.3 °F /  5.7 °C 42.8 °F /  6.0 °C 29.7in /  1005.0hPa WNW 3.8mph /  6.1km/h 10.3mph /  16.6km/h 98% 0.05in /  1.3mm
13:12 42.1 °F /  5.6 °C 42.8 °F /  6.0 °C 29.7in /  1005.0hPa West 2.7mph /  4.3km/h 10.3mph /  16.6km/h 98% 0.05in /  1.3mm
13:17 42.1 °F /  5.6 °C 42.8 °F /  6.0 °C 29.7in /  1005.0hPa NW 5.6mph /  9.0km/h 8.5mph /  13.7km/h 98% 0.03in /  0.8mm
13:22 42.8 °F /  6.0 °C 42.8 °F /  6.0 °C 29.7in /  1005.0hPa WNW 3.4mph /  5.5km/h 8.1mph /  13.0km/h 98% 0.03in /  0.8mm
13:27 43 °F /  6.1 °C 42.8 °F /  6.0 °C 29.7in /  1005.0hPa WNW 5.6mph /  9.0km/h 8.1mph /  13.0km/h 98% 0.02in /  0.5mm
13:32 42.8 °F /  6.0 °C 42.8 °F /  6.0 °C 29.7in /  1006.0hPa NNW 7.4mph /  11.9km/h 7.8mph /  12.6km/h 98% 0.01in /  0.3mm
13:37 42.8 °F /  6.0 °C 42.8 °F /  6.0 °C 29.7in /  1006.0hPa NNW 4.9mph /  7.9km/h 7.8mph /  12.6km/h 98% 0.01in /  0.3mm
13:42 43 °F /  6.1 °C 42.8 °F /  6.0 °C 29.7in /  1006.0hPa WNW 5.8mph /  9.3km/h 7.8mph /  12.6km/h 98% 0in /  0.0mm
13:47 43.3 °F /  6.3 °C 42.8 °F /  6.0 °C 29.7in /  1005.0hPa WSW 9.8mph /  15.8km/h 9.8mph /  15.8km/h 98% 0in /  0.0mm
13:52 43.9 °F /  6.6 °C 44.6 °F /  7.0 °C 29.7in /  1005.0hPa West 6.3mph /  10.1km/h 10.1mph /  16.3km/h 98% 0in /  0.0mm
13:57 44.1 °F /  6.7 °C 42.8 °F /  6.0 °C 29.7in /  1005.0hPa NNW 11mph /  17.7km/h 11mph /  17.7km/h 97% 0in /  0.0mm
14:02 44.4 °F /  6.9 °C 42.8 °F /  6.0 °C 29.7in /  1005.0hPa NNW 7.8mph /  12.6km/h 15.7mph /  25.3km/h 95% 0in /  0.0mm
14:07 44.8 °F /  7.1 °C 42.8 °F /  6.0 °C 29.7in /  1005.0hPa North 3.6mph /  5.8km/h 15.7mph /  25.3km/h 93% 0in /  0.0mm
14:12 44.1 °F /  6.7 °C 42.8 °F /  6.0 °C 29.7in /  1005.0hPa North 8.7mph /  14.0km/h 13.2mph /  21.2km/h 93% 0in /  0.0mm
14:17 42.4 °F /  5.8 °C 39.2 °F /  4.0 °C 29.7in /  1005.0hPa North 9.6mph /  15.4km/h 13.2mph /  21.2km/h 87% 0.01in /  0.3mm
14:22 41.9 °F /  5.5 °C 39.2 °F /  4.0 °C 29.7in /  1005.0hPa NNW 5.4mph /  8.7km/h 12.8mph /  20.6km/h 89% 0.02in /  0.5mm
14:27 41.7 °F /  5.4 °C 39.2 °F /  4.0 °C 29.7in /  1005.0hPa North 4mph /  6.4km/h 10.3mph /  16.6km/h 91% 0.02in /  0.5mm
14:32 41.4 °F /  5.2 °C 39.2 °F /  4.0 °C 29.7in /  1006.0hPa NNW 4.9mph /  7.9km/h 10.3mph /  16.6km/h 91% 0.03in /  0.8mm
14:37 41 °F /  5.0 °C 39.2 °F /  4.0 °C 29.7in /  1006.0hPa NNW 6.3mph /  10.1km/h 10.3mph /  16.6km/h 91% 0.05in /  1.3mm
14:42 39.2 °F /  4.0 °C 37.4 °F /  3.0 °C 29.7in /  1006.0hPa NNE 7.8mph /  12.6km/h 13.9mph /  22.4km/h 89% 0.12in /  3.0mm
14:48 38.8 °F /  3.8 °C 37.4 °F /  3.0 °C 29.7in /  1006.0hPa WNW 4.9mph /  7.9km/h 13.9mph /  22.4km/h 93% 0.16in /  4.1mm
14:53 38.7 °F /  3.7 °C 37.4 °F /  3.0 °C 29.7in /  1006.0hPa NW 6mph /  9.7km/h 12.1mph /  19.5km/h 95% 0.18in /  4.6mm
14:58 38.7 °F /  3.7 °C 37.4 °F /  3.0 °C 29.7in /  1006.0hPa NNW 6.9mph /  11.1km/h 9.8mph /  15.8km/h 96% 0.21in /  5.3mm
15:03 38.8 °F /  3.8 °C 37.4 °F /  3.0 °C 29.7in /  1006.0hPa NNW 2.5mph /  4.0km/h 9.8mph /  15.8km/h 97% 0.21in /  5.3mm
15:09 38.8 °F /  3.8 °C 39.2 °F /  4.0 °C 29.7in /  1006.0hPa NNW 3.6mph /  5.8km/h 7.2mph /  11.6km/h 98% 0.21in /  5.3mm
15:14 38.8 °F /  3.8 °C 39.2 °F /  4.0 °C 29.7in /  1007.0hPa NNW 3.8mph /  6.1km/h 10.3mph /  16.6km/h 98% 0.21in /  5.3mm
15:19 39 °F /  3.9 °C 39.2 °F /  4.0 °C 29.7in /  1007.0hPa WNW 3.4mph /  5.5km/h 10.3mph /  16.6km/h 98% 0.21in /  5.3mm
15:24 39 °F /  3.9 °C 39.2 °F /  4.0 °C 29.7in /  1007.0hPa Calm   7.6mph /  12.2km/h 98% 0.21in /  5.3mm
15:29 39.2 °F /  4.0 °C 39.2 °F /  4.0 °C 29.7in /  1007.0hPa Calm   7.2mph /  11.6km/h 98% 0.21in /  5.3mm
15:34 39.7 °F /  4.3 °C 39.2 °F /  4.0 °C 29.7in /  1007.0hPa West 4mph /  6.4km/h 4.5mph /  7.2km/h 98% 0.2in /  5.1mm
15:39 39.9 °F /  4.4 °C 39.2 °F /  4.0 °C 29.7in /  1007.0hPa NNW 2.2mph /  3.5km/h 4.5mph /  7.2km/h 98% 0.15in /  3.8mm
15:44 39.9 °F /  4.4 °C 39.2 °F /  4.0 °C 29.7in /  1007.0hPa NNW 4.9mph /  7.9km/h 5.6mph /  9.0km/h 98% 0.11in /  2.8mm
15:49 39.7 °F /  4.3 °C 39.2 °F /  4.0 °C 29.7in /  1007.0hPa North 2.9mph /  4.7km/h 5.6mph /  9.0km/h 98% 0.1in /  2.5mm
15:54 39.9 °F /  4.4 °C 39.2 °F /  4.0 °C 29.7in /  1007.0hPa WNW 5.4mph /  8.7km/h 6.3mph /  10.1km/h 98% 0.07in /  1.8mm
15:59 39.9 °F /  4.4 °C 39.2 °F /  4.0 °C 29.7in /  1007.0hPa NNW 3.6mph /  5.8km/h 6.3mph /  10.1km/h 98% 0.05in /  1.3mm
16:04 40.1 °F /  4.5 °C 41 °F /  5.0 °C 29.7in /  1007.0hPa NNW 2.5mph /  4.0km/h 6.5mph /  10.5km/h 98% 0.06in /  1.5mm
16:09 40.3 °F /  4.6 °C 41 °F /  5.0 °C 29.7in /  1007.0hPa North 1.3mph /  2.1km/h 6.5mph /  10.5km/h 98% 0.06in /  1.5mm
16:14 41 °F /  5.0 °C 41 °F /  5.0 °C 29.7in /  1007.0hPa Calm   4.3mph /  6.9km/h 98% 0.05in /  1.3mm
16:19 41.7 °F /  5.4 °C 42.8 °F /  6.0 °C 29.7in /  1007.0hPa NW 4mph /  6.4km/h 4.3mph /  6.9km/h 98% 0.03in /  0.8mm
16:24 41.2 °F /  5.1 °C 41 °F /  5.0 °C 29.7in /  1007.0hPa NNE 1.6mph /  2.6km/h 7.8mph /  12.6km/h 98% 0.03in /  0.8mm
16:29 41.2 °F /  5.1 °C 41 °F /  5.0 °C 29.7in /  1006.0hPa ESE 2.2mph /  3.5km/h 8.5mph /  13.7km/h 98% 0.03in /  0.8mm
16:34 41 °F /  5.0 °C 41 °F /  5.0 °C 29.7in /  1006.0hPa NE 8.1mph /  13.0km/h 8.7mph /  14.0km/h 98% 0.05in /  1.3mm
16:39 41.2 °F /  5.1 °C 41 °F /  5.0 °C 29.7in /  1006.0hPa North 2.7mph /  4.3km/h 8.7mph /  14.0km/h 98% 0.05in /  1.3mm
16:44 41 °F /  5.0 °C 41 °F /  5.0 °C 29.7in /  1007.0hPa North 5.8mph /  9.3km/h 8.7mph /  14.0km/h 98% 0.04in /  1.0mm
16:49 40.8 °F /  4.9 °C 41 °F /  5.0 °C 29.7in /  1007.0hPa North 7.4mph /  11.9km/h 7.8mph /  12.6km/h 98% 0.03in /  0.8mm
16:54 40.6 °F /  4.8 °C 41 °F /  5.0 °C 29.7in /  1007.0hPa NNE 2.2mph /  3.5km/h 7.8mph /  12.6km/h 98% 0.03in /  0.8mm
16:59 40.6 °F /  4.8 °C 41 °F /  5.0 °C 29.7in /  1006.0hPa NNW 1.3mph /  2.1km/h 7.4mph /  11.9km/h 98% 0.03in /  0.8mm
17:04 41 °F /  5.0 °C 41 °F /  5.0 °C 29.7in /  1006.0hPa NE 5.6mph /  9.0km/h 5.8mph /  9.3km/h 98% 0.01in /  0.3mm
17:09 41.2 °F /  5.1 °C 41 °F /  5.0 °C 29.7in /  1006.0hPa Calm   5.6mph /  9.0km/h 98% 0.01in /  0.3mm
17:14 41.2 °F /  5.1 °C 41 °F /  5.0 °C 29.7in /  1007.0hPa NNE 3.6mph /  5.8km/h 6.7mph /  10.8km/h 98% 0.01in /  0.3mm
17:19 41 °F /  5.0 °C 41 °F /  5.0 °C 29.7in /  1007.0hPa North 6mph /  9.7km/h 7.6mph /  12.2km/h 98% 0.01in /  0.3mm
17:24 40.5 °F /  4.7 °C 41 °F /  5.0 °C 29.7in /  1007.0hPa NNE 6mph /  9.7km/h 12.8mph /  20.6km/h 98% 0.01in /  0.3mm
17:29 40.1 °F /  4.5 °C 41 °F /  5.0 °C 29.7in /  1007.0hPa North 8.1mph /  13.0km/h 12.8mph /  20.6km/h 98% 0.03in /  0.8mm
17:34 39.9 °F /  4.4 °C 39.2 °F /  4.0 °C 29.7in /  1007.0hPa WNW 3.1mph /  5.0km/h 8.1mph /  13.0km/h 98% 0.01in /  0.3mm
17:39 39.7 °F /  4.3 °C 39.2 °F /  4.0 °C 29.7in /  1007.0hPa Calm   7.6mph /  12.2km/h 98% 0.01in /  0.3mm
17:44 39.7 °F /  4.3 °C 39.2 °F /  4.0 °C 29.7in /  1007.0hPa Calm   4.3mph /  6.9km/h 98% 0.01in /  0.3mm
17:49 39.6 °F /  4.2 °C 39.2 °F /  4.0 °C 29.7in /  1007.0hPa Calm   2.7mph /  4.3km/h 98% 0.01in /  0.3mm
17:54 39.4 °F /  4.1 °C 39.2 °F /  4.0 °C 29.7in /  1007.0hPa Calm   3.1mph /  5.0km/h 98% 0.01in /  0.3mm
18:00 39.2 °F /  4.0 °C 39.2 °F /  4.0 °C 29.7in /  1007.0hPa Calm   3.8mph /  6.1km/h 98% 0.01in /  0.3mm
18:05 38.8 °F /  3.8 °C 39.2 °F /  4.0 °C 29.7in /  1007.0hPa Calm   3.8mph /  6.1km/h 98% 0.01in /  0.3mm
18:10 38.7 °F /  3.7 °C 39.2 °F /  4.0 °C 29.7in /  1007.0hPa Calm   2.2mph /  3.5km/h 98% 0.01in /  0.3mm
18:15 38.7 °F /  3.7 °C 39.2 °F /  4.0 °C 29.8in /  1008.0hPa Calm   1.1mph /  1.8km/h 98% 0.01in /  0.3mm
18:20 38.8 °F /  3.8 °C 39.2 °F /  4.0 °C 29.8in /  1008.0hPa Calm     98% 0.01in /  0.3mm
18:25 39 °F /  3.9 °C 39.2 °F /  4.0 °C 29.8in /  1008.0hPa Calm   1.1mph /  1.8km/h 98% 0.01in /  0.3mm
18:30 39 °F /  3.9 °C 39.2 °F /  4.0 °C 29.8in /  1008.0hPa Calm   2.9mph /  4.7km/h 98% 0in /  0.0mm
18:35 39.2 °F /  4.0 °C 39.2 °F /  4.0 °C 29.8in /  1008.0hPa North 4.9mph /  7.9km/h 7.6mph /  12.2km/h 98% 0.01in /  0.3mm
18:40 39.4 °F /  4.1 °C 39.2 °F /  4.0 °C 29.8in /  1008.0hPa NNW 3.8mph /  6.1km/h 7.6mph /  12.2km/h 98% 0.01in /  0.3mm
18:45 39.4 °F /  4.1 °C 39.2 °F /  4.0 °C 29.8in /  1009.0hPa Calm   5.6mph /  9.0km/h 98% 0.01in /  0.3mm
18:50 39.4 °F /  4.1 °C 39.2 °F /  4.0 °C 29.8in /  1009.0hPa Calm   2.9mph /  4.7km/h 98% 0.02in /  0.5mm
18:55 39.2 °F /  4.0 °C 39.2 °F /  4.0 °C 29.8in /  1009.0hPa Calm   2mph /  3.2km/h 98% 0.02in /  0.5mm
19:00 39.2 °F /  4.0 °C 39.2 °F /  4.0 °C 29.8in /  1009.0hPa Calm   2mph /  3.2km/h 98% 0.02in /  0.5mm
19:05 39.2 °F /  4.0 °C 39.2 °F /  4.0 °C 29.8in /  1009.0hPa Calm   1.3mph /  2.1km/h 98% 0.02in /  0.5mm
19:10 39.2 °F /  4.0 °C 39.2 °F /  4.0 °C 29.8in /  1009.0hPa Calm   1.3mph /  2.1km/h 98% 0.02in /  0.5mm
19:16 39.4 °F /  4.1 °C 39.2 °F /  4.0 °C 29.8in /  1009.0hPa Calm   6.5mph /  10.5km/h 98% 0.02in /  0.5mm
19:21 39.4 °F /  4.1 °C 39.2 °F /  4.0 °C 29.8in /  1009.0hPa North 2.5mph /  4.0km/h 6.5mph /  10.5km/h 98% 0.02in /  0.5mm
19:26 39.4 °F /  4.1 °C 39.2 °F /  4.0 °C 29.8in /  1009.0hPa Calm   4mph /  6.4km/h 98% 0.02in /  0.5mm
19:31 39.4 °F /  4.1 °C 39.2 °F /  4.0 °C 29.8in /  1009.0hPa NNW 3.8mph /  6.1km/h 3.8mph /  6.1km/h 98% 0.02in /  0.5mm
19:36 39.2 °F /  4.0 °C 39.2 °F /  4.0 °C 29.8in /  1009.0hPa Calm   3.8mph /  6.1km/h 98% 0.01in /  0.3mm
19:41 39 °F /  3.9 °C 39.2 °F /  4.0 °C 29.8in /  1009.0hPa Calm   3.8mph /  6.1km/h 98% 0.01in /  0.3mm
19:46 38.8 °F /  3.8 °C 39.2 °F /  4.0 °C 29.8in /  1009.0hPa Calm     98% 0.01in /  0.3mm
19:51 38.7 °F /  3.7 °C 39.2 °F /  4.0 °C 29.8in /  1009.0hPa Calm     98% 0in /  0.0mm
19:56 38.3 °F /  3.5 °C 39.2 °F /  4.0 °C 29.8in /  1009.0hPa Calm     98% 0in /  0.0mm
20:01 38.1 °F /  3.4 °C 37.4 °F /  3.0 °C 29.8in /  1009.0hPa WNW 1.1mph /  1.8km/h 1.1mph /  1.8km/h 98% 0in /  0.0mm
20:06 38.1 °F /  3.4 °C 37.4 °F /  3.0 °C 29.8in /  1009.0hPa Calm   3.4mph /  5.5km/h 98% 0in /  0.0mm
20:11 37.9 °F /  3.3 °C 37.4 °F /  3.0 °C 29.8in /  1009.0hPa Calm   3.4mph /  5.5km/h 98% 0in /  0.0mm
20:16 37.8 °F /  3.2 °C 37.4 °F /  3.0 °C 29.8in /  1008.0hPa Calm   3.4mph /  5.5km/h 98% 0in /  0.0mm
20:21 37.6 °F /  3.1 °C 37.4 °F /  3.0 °C 29.8in /  1008.0hPa Calm   3.4mph /  5.5km/h 98% 0in /  0.0mm
20:26 37.4 °F /  3.0 °C 37.4 °F /  3.0 °C 29.8in /  1008.0hPa Calm   2.5mph /  4.0km/h 98% 0in /  0.0mm
20:31 37.2 °F /  2.9 °C 37.4 °F /  3.0 °C 29.8in /  1009.0hPa Calm   2.5mph /  4.0km/h 98% 0in /  0.0mm
20:36 37 °F /  2.8 °C 37.4 °F /  3.0 °C 29.8in /  1009.0hPa Calm   2.7mph /  4.3km/h 98% 0in /  0.0mm
20:41 36.9 °F /  2.7 °C 37.4 °F /  3.0 °C 29.8in /  1009.0hPa Calm   2.7mph /  4.3km/h 98% 0in /  0.0mm
20:46 36.9 °F /  2.7 °C 37.4 °F /  3.0 °C 29.8in /  1009.0hPa Calm   2.9mph /  4.7km/h 98% 0in /  0.0mm
20:51 37 °F /  2.8 °C 37.4 °F /  3.0 °C 29.8in /  1009.0hPa Calm   4.7mph /  7.6km/h 98% 0in /  0.0mm
20:56 37 °F /  2.8 °C 37.4 °F /  3.0 °C 29.8in /  1009.0hPa Calm   4.7mph /  7.6km/h 98% 0in /  0.0mm
21:01 37 °F /  2.8 °C 37.4 °F /  3.0 °C 29.8in /  1009.0hPa Calm   3.4mph /  5.5km/h 98% 0in /  0.0mm
21:06 37 °F /  2.8 °C 37.4 °F /  3.0 °C 29.8in /  1009.0hPa Calm   3.4mph /  5.5km/h 98% 0in /  0.0mm
21:11 37 °F /  2.8 °C 37.4 °F /  3.0 °C 29.8in /  1009.0hPa NNE 0.9mph /  1.4km/h 2.9mph /  4.7km/h 98% 0in /  0.0mm
21:16 37 °F /  2.8 °C 37.4 °F /  3.0 °C 29.8in /  1010.0hPa Calm   3.1mph /  5.0km/h 98% 0in /  0.0mm
21:21 37 °F /  2.8 °C 37.4 °F /  3.0 °C 29.8in /  1010.0hPa Calm   3.1mph /  5.0km/h 98% 0in /  0.0mm
21:26 37.4 °F /  3.0 °C 37.4 °F /  3.0 °C 29.8in /  1010.0hPa NNW 2mph /  3.2km/h 4.7mph /  7.6km/h 98% 0in /  0.0mm
21:31 37.4 °F /  3.0 °C 37.4 °F /  3.0 °C 29.8in /  1010.0hPa Calm   4.7mph /  7.6km/h 98% 0in /  0.0mm
21:36 37.4 °F /  3.0 °C 37.4 °F /  3.0 °C 29.8in /  1010.0hPa Calm   4mph /  6.4km/h 98% 0in /  0.0mm
21:41 37.2 °F /  2.9 °C 37.4 °F /  3.0 °C 29.8in /  1010.0hPa Calm   3.4mph /  5.5km/h 98% 0in /  0.0mm
21:46 36.9 °F /  2.7 °C 37.4 °F /  3.0 °C 29.8in /  1010.0hPa Calm     98% 0in /  0.0mm
21:52 36.3 °F /  2.4 °C 37.4 °F /  3.0 °C 29.8in /  1010.0hPa Calm     98% 0in /  0.0mm
21:57 36.1 °F /  2.3 °C 37.4 °F /  3.0 °C 29.8in /  1010.0hPa Calm     98% 0in /  0.0mm
22:02 36.1 °F /  2.3 °C 37.4 °F /  3.0 °C 29.8in /  1010.0hPa Calm   2mph /  3.2km/h 98% 0in /  0.0mm
22:07 36.5 °F /  2.5 °C 37.4 °F /  3.0 °C 29.8in /  1010.0hPa Calm   2mph /  3.2km/h 98% 0in /  0.0mm
22:12 36.7 °F /  2.6 °C 37.4 °F /  3.0 °C 29.8in /  1010.0hPa Calm     98% 0in /  0.0mm
22:17 36.3 °F /  2.4 °C 37.4 °F /  3.0 °C 29.8in /  1009.0hPa Calm     98% 0in /  0.0mm
22:22 36.3 °F /  2.4 °C 37.4 °F /  3.0 °C 29.8in /  1009.0hPa Calm     98% 0in /  0.0mm
22:27 36.3 °F /  2.4 °C 37.4 °F /  3.0 °C 29.8in /  1009.0hPa Calm   2.5mph /  4.0km/h 98% 0in /  0.0mm
22:32 36.5 °F /  2.5 °C 37.4 °F /  3.0 °C 29.8in /  1009.0hPa Calm   2.5mph /  4.0km/h 98% 0in /  0.0mm
22:37 36.3 °F /  2.4 °C 37.4 °F /  3.0 °C 29.8in /  1009.0hPa Calm     98% 0in /  0.0mm
22:42 36.1 °F /  2.3 °C 37.4 °F /  3.0 °C 29.8in /  1009.0hPa Calm     98% 0in /  0.0mm
22:47 35.8 °F /  2.1 °C 35.6 °F /  2.0 °C 29.8in /  1009.0hPa Calm     98% 0in /  0.0mm
22:52 35.8 °F /  2.1 °C 35.6 °F /  2.0 °C 29.8in /  1009.0hPa Calm     98% 0in /  0.0mm
22:57 35.6 °F /  2.0 °C 35.6 °F /  2.0 °C 29.8in /  1009.0hPa Calm     98% 0in /  0.0mm
23:02 35.6 °F /  2.0 °C 35.6 °F /  2.0 °C 29.8in /  1009.0hPa Calm     98% 0in /  0.0mm
23:07 35.6 °F /  2.0 °C 35.6 °F /  2.0 °C 29.8in /  1009.0hPa Calm     98% 0in /  0.0mm
23:12 35.6 °F /  2.0 °C 35.6 °F /  2.0 °C 29.8in /  1009.0hPa Calm     98% 0in /  0.0mm
23:17 35.6 °F /  2.0 °C 35.6 °F /  2.0 °C 29.8in /  1009.0hPa Calm     98% 0in /  0.0mm
23:22 35.6 °F /  2.0 °C 35.6 °F /  2.0 °C 29.8in /  1009.0hPa Calm     98% 0in /  0.0mm
23:27 35.8 °F /  2.1 °C 35.6 °F /  2.0 °C 29.8in /  1009.0hPa Calm   2.5mph /  4.0km/h 98% 0in /  0.0mm
23:32 35.8 °F /  2.1 °C 35.6 °F /  2.0 °C 29.8in /  1009.0hPa Calm   2.5mph /  4.0km/h 98% 0in /  0.0mm
23:37 35.8 °F /  2.1 °C 35.6 °F /  2.0 °C 29.8in /  1009.0hPa Calm     98% 0in /  0.0mm
23:42 35.6 °F /  2.0 °C 35.6 °F /  2.0 °C 29.8in /  1009.0hPa Calm     98% 0in /  0.0mm
23:48 35.4 °F /  1.9 °C 35.6 °F /  2.0 °C 29.8in /  1009.0hPa Calm     98% 0in /  0.0mm
23:53 35.2 °F /  1.8 °C 35.6 °F /  2.0 °C 29.8in /  1009.0hPa Calm     98% 0in /  0.0mm
23:58 35.2 °F /  1.8 °C 35.6 °F /  2.0 °C 29.8in /  1009.0hPa Calm     98% 0in /  0.0mm
Données Historique de Météo Turbie

Mise a jour : 22/05/2018 04:20:13
Généré par Cumulus 1.9.4 (1099)